Big Bear Station Historical Data
Daily Summary for June 24, 2019 Units:  English    Metric   Both
Next Day »
Daily Weekly Monthly Yearly Custom
  High: Low: Average:
Temperature: 79.2 °F 43.5 °F 60.6 °F
Dew Point: 44.1 °F 22.5 °F 34.3 °F
Humidity: 80% 19% 42%
Wind Speed: 9.4mph 0mph 0.5mph
Wind Gust: -999mph - -
Wind- - NW
Pressure: 23.57 in 23.50 in -
Precipitation: 0 in    
Historical Graphs
 
 
Tabular Data for June 24, 2019
Time Temperature Dew Point Pressure Wind Wind Speed Wind Gust Humidity Rainfall Rate (Hourly)
00:05 49.3 °F 30.9 °F 23.57 in Calm   -999 mph 49% 0.00 in
00:20 48.7 °F 32.3 °F 23.56 in Calm   -999 mph 53% 0.00 in
00:35 48.4 °F 32.5 °F 23.56 in Calm   -999 mph 54% 0.00 in
00:50 47.8 °F 30.5 °F 23.56 in Calm   -999 mph 51% 0.00 in
01:06 47.7 °F 31.4 °F 23.55 in Calm   -999 mph 53% 0.00 in
01:21 47.3 °F 31.9 °F 23.55 in Calm   -999 mph 55% 0.00 in
01:36 46.8 °F 31.9 °F 23.55 in Calm   -999 mph 56% 0.00 in
01:51 46.6 °F 31.3 °F 23.55 in Calm   -999 mph 55% 0.00 in
02:06 46.4 °F 31.5 °F 23.55 in Calm   -999 mph 56% 0.00 in
02:22 46 °F 32.5 °F 23.54 in Calm   -999 mph 59% 0.00 in
02:37 45.9 °F 32.4 °F 23.54 in Calm   -999 mph 59% 0.00 in
02:52 45.5 °F 32.8 °F 23.54 in Calm   -999 mph 61% 0.00 in
03:07 45.3 °F 31.8 °F 23.54 in Calm   -999 mph 59% 0.00 in
03:22 45 °F 31.9 °F 23.54 in Calm   -999 mph 60% 0.00 in
03:38 44.6 °F 32 °F 23.54 in Calm   -999 mph 61% 0.00 in
03:53 44.6 °F 31.6 °F 23.54 in Calm   -999 mph 60% 0.00 in
04:08 44.2 °F 33.2 °F 23.54 in Calm   -999 mph 65% 0.00 in
04:23 44.4 °F 33.4 °F 23.54 in Calm   -999 mph 65% 0.00 in
04:39 44.2 °F 35.7 °F 23.53 in Calm   -999 mph 72% 0.00 in
04:54 44.1 °F 37 °F 23.54 in Calm   -999 mph 76% 0.00 in
05:09 44.2 °F 37.1 °F 23.54 in Calm   -999 mph 76% 0.00 in
05:24 43.9 °F 36.2 °F 23.54 in Calm   -999 mph 74% 0.00 in
05:39 43.7 °F 34.9 °F 23.54 in Calm   -999 mph 71% 0.00 in
05:55 43.7 °F 36.3 °F 23.54 in Calm   -999 mph 75% 0.00 in
06:10 43.7 °F 36.3 °F 23.54 in Calm   -999 mph 75% 0.00 in
06:25 44.1 °F 36.7 °F 23.54 in Calm   -999 mph 75% 0.00 in
06:40 43.5 °F 36.8 °F 23.54 in Calm   -999 mph 77% 0.00 in
06:55 44.6 °F 38.2 °F 23.54 in Calm   -999 mph 78% 0.00 in
07:11 45.7 °F 38.9 °F 23.54 in Calm   -999 mph 77% 0.00 in
07:26 46.6 °F 39.8 °F 23.54 in Calm   -999 mph 77% 0.00 in
07:41 47.1 °F 41.2 °F 23.54 in Calm   -999 mph 80% 0.00 in
07:56 48.9 °F 42 °F 23.54 in Calm   -999 mph 77% 0.00 in
08:11 51.1 °F 43.8 °F 23.54 in Calm   -999 mph 76% 0.00 in
08:27 53.6 °F 44.1 °F 23.54 in Calm   -999 mph 70% 0.00 in
08:42 56.5 °F 43.2 °F 23.54 in Calm   -999 mph 61% 0.00 in
08:57 59 °F 39.3 °F 23.54 in Calm   -999 mph 48% 0.00 in
09:12 62.6 °F 37.9 °F 23.54 in Calm   -999 mph 40% 0.00 in
09:28 64.9 °F 38.7 °F 23.54 in Calm   -999 mph 38% 0.00 in
09:43 66.6 °F 37.4 °F 23.54 in Calm   -999 mph 34% 0.00 in
09:58 67.6 °F 37.5 °F 23.54 in Calm   -999 mph 33% 0.00 in
10:13 68.4 °F 38.9 °F 23.54 in Calm   -999 mph 34% 0.00 in
10:28 68.7 °F 38.4 °F 23.54 in Calm   -999 mph 33% 0.00 in
10:44 69.4 °F 37.5 °F 23.54 in Calm   -999 mph 31% 0.00 in
10:59 70 °F 41.1 °F 23.54 in Calm   -999 mph 35% 0.00 in
11:14 71.1 °F 36.3 °F 23.54 in NW 3.2 mph -999 mph 28% 0.00 in
11:29 72.1 °F 37.2 °F 23.54 in Calm   -999 mph 28% 0.00 in
11:44 74.3 °F 39.1 °F 23.54 in North 1.1 mph -999 mph 28% 0.00 in
12:00 75 °F 35.8 °F 23.54 in NW 4.7 mph -999 mph 24% 0.00 in
12:15 76.5 °F 39.1 °F 23.54 in NNW 4.2 mph -999 mph 26% 0.00 in
12:30 76.3 °F 41.7 °F 23.54 in NW 1.7 mph -999 mph 29% 0.00 in
12:45 76.3 °F 37.9 °F 23.54 in Calm   -999 mph 25% 0.00 in
13:00 77 °F 39.5 °F 23.54 in Calm   -999 mph 26% 0.00 in
13:16 77.2 °F 39.7 °F 23.54 in Calm   -999 mph 26% 0.00 in
13:31 77.9 °F 39.3 °F 23.53 in WNW 2.7 mph -999 mph 25% 0.00 in
13:46 77.7 °F 38 °F 23.53 in Calm   -999 mph 24% 0.00 in
14:01 79 °F 39.1 °F 23.54 in Calm   -999 mph 24% 0.00 in
14:16 78.3 °F 39.6 °F 23.53 in Calm   -999 mph 25% 0.00 in
14:32 77.2 °F 36.5 °F 23.53 in NW 4.2 mph -999 mph 23% 0.00 in
14:47 77.9 °F 37.1 °F 23.53 in Calm   -999 mph 23% 0.00 in
15:02 77 °F 38.5 °F 23.52 in NW 9.4 mph -999 mph 25% 0.00 in
15:17 75.9 °F 35.4 °F 23.52 in Calm   -999 mph 23% 0.00 in
15:33 79.2 °F 38.2 °F 23.52 in Calm   -999 mph 23% 0.00 in
15:48 77.2 °F 34.2 °F 23.52 in West 5.3 mph -999 mph 21% 0.00 in
16:03 76.5 °F 34.8 °F 23.51 in Calm   -999 mph 22% 0.00 in
16:18 75.4 °F 35 °F 23.51 in Calm   -999 mph 23% 0.00 in
16:34 76.3 °F 32.3 °F 23.51 in WNW 8.9 mph -999 mph 20% 0.00 in
16:49 75.7 °F 30.5 °F 23.51 in Calm   -999 mph 19% 0.00 in
17:04 76.1 °F 30.8 °F 23.50 in NW 3.2 mph -999 mph 19% 0.00 in
17:19 74.5 °F 29.5 °F 23.51 in Calm   -999 mph 19% 0.00 in
17:35 75 °F 33.6 °F 23.50 in Calm   -999 mph 22% 0.00 in
17:50 74.1 °F 30.5 °F 23.50 in Calm   -999 mph 20% 0.00 in
18:05 75.4 °F 33.9 °F 23.50 in Calm   -999 mph 22% 0.00 in
18:20 75.4 °F 33.9 °F 23.50 in Calm   -999 mph 22% 0.00 in
18:36 73 °F 36.1 °F 23.50 in Calm   -999 mph 26% 0.00 in
18:51 71.4 °F 35.7 °F 23.50 in Calm   -999 mph 27% 0.00 in
19:06 72 °F 38 °F 23.50 in Calm   -999 mph 29% 0.00 in
19:21 68.7 °F 36.8 °F 23.50 in Calm   -999 mph 31% 0.00 in
19:36 64.9 °F 36.6 °F 23.50 in Calm   -999 mph 35% 0.00 in
19:52 62.8 °F 34 °F 23.50 in Calm   -999 mph 34% 0.00 in
20:07 61.9 °F 31.7 °F 23.50 in Calm   -999 mph 32% 0.00 in
20:22 60.8 °F 31.5 °F 23.50 in Calm   -999 mph 33% 0.00 in
20:37 59.7 °F 29.8 °F 23.50 in Calm   -999 mph 32% 0.00 in
20:52 58.8 °F 28.2 °F 23.50 in Calm   -999 mph 31% 0.00 in
21:08 58.1 °F 26.8 °F 23.50 in Calm   -999 mph 30% 0.00 in
21:23 57.4 °F 25.4 °F 23.50 in Calm   -999 mph 29% 0.00 in
21:38 57.2 °F 24.4 °F 23.50 in Calm   -999 mph 28% 0.00 in
21:53 56.7 °F 23.9 °F 23.51 in Calm   -999 mph 28% 0.00 in
22:08 56.5 °F 24.6 °F 23.51 in Calm   -999 mph 29% 0.00 in
22:24 56.1 °F 24.3 °F 23.51 in Calm   -999 mph 29% 0.00 in
22:39 55.6 °F 23.8 °F 23.51 in Calm   -999 mph 29% 0.00 in
22:54 55.4 °F 22.8 °F 23.51 in Calm   -999 mph 28% 0.00 in
23:09 55 °F 23.3 °F 23.50 in Calm   -999 mph 29% 0.00 in
23:25 55 °F 22.5 °F 23.50 in Calm   -999 mph 28% 0.00 in
23:40 54.7 °F 23 °F 23.50 in Calm   -999 mph 29% 0.00 in
23:55 54 °F 24 °F 23.50 in Calm   -999 mph 31% 0.00 in
Big Bear CA Weather